sensor_id;sensor_type;location;lat;lon;timestamp;noise_LAeq;noise_LA_min;noise_LA_max;noise_LA01;noise_LA95
74496;Laerm;62979;55.720;37.606;2023-08-17T00:01:44;42.20;38.21;47.47;;
74496;Laerm;62979;55.720;37.606;2023-08-17T00:04:11;44.49;39.31;52.70;;
74496;Laerm;62979;55.720;37.606;2023-08-17T00:06:38;45.48;41.78;51.53;;
74496;Laerm;62979;55.720;37.606;2023-08-17T00:09:05;46.80;42.78;58.74;;
74496;Laerm;62979;55.720;37.606;2023-08-17T00:11:33;48.84;41.19;59.17;;
74496;Laerm;62979;55.720;37.606;2023-08-17T00:14:00;44.29;40.41;57.78;;
74496;Laerm;62979;55.720;37.606;2023-08-17T00:16:27;48.55;39.00;57.80;;
74496;Laerm;62979;55.720;37.606;2023-08-17T00:18:55;46.60;39.22;59.30;;
74496;Laerm;62979;55.720;37.606;2023-08-17T00:21:22;42.07;38.47;46.98;;
74496;Laerm;62979;55.720;37.606;2023-08-17T00:23:49;42.78;38.29;50.83;;
74496;Laerm;62979;55.720;37.606;2023-08-17T00:26:16;44.32;41.60;54.89;;
74496;Laerm;62979;55.720;37.606;2023-08-17T00:28:43;55.33;40.53;74.92;;
74496;Laerm;62979;55.720;37.606;2023-08-17T00:31:10;43.03;39.79;46.72;;
74496;Laerm;62979;55.720;37.606;2023-08-17T00:33:38;42.55;39.21;48.09;;
74496;Laerm;62979;55.720;37.606;2023-08-17T00:36:06;42.92;39.04;50.09;;
74496;Laerm;62979;55.720;37.606;2023-08-17T00:38:33;45.00;39.52;54.09;;
74496;Laerm;62979;55.720;37.606;2023-08-17T00:40:59;44.75;39.09;54.14;;
74496;Laerm;62979;55.720;37.606;2023-08-17T00:43:26;42.48;38.78;47.84;;
74496;Laerm;62979;55.720;37.606;2023-08-17T00:45:53;42.89;38.05;50.84;;
74496;Laerm;62979;55.720;37.606;2023-08-17T00:48:20;43.32;38.47;50.88;;
74496;Laerm;62979;55.720;37.606;2023-08-17T00:50:50;44.19;38.82;56.72;;
74496;Laerm;62979;55.720;37.606;2023-08-17T00:53:20;49.42;38.70;64.35;;
74496;Laerm;62979;55.720;37.606;2023-08-17T00:55:49;42.89;38.88;52.10;;
74496;Laerm;62979;55.720;37.606;2023-08-17T00:58:17;48.74;38.33;68.92;;
74496;Laerm;62979;55.720;37.606;2023-08-17T01:00:44;46.58;38.68;57.75;;
74496;Laerm;62979;55.720;37.606;2023-08-17T01:03:11;42.11;38.30;50.98;;
74496;Laerm;62979;55.720;37.606;2023-08-17T01:05:38;47.39;38.86;60.74;;
74496;Laerm;62979;55.720;37.606;2023-08-17T01:08:05;42.10;37.64;54.03;;
74496;Laerm;62979;55.720;37.606;2023-08-17T01:10:47;41.63;37.90;46.22;;
74496;Laerm;62979;55.720;37.606;2023-08-17T01:13:24;41.39;37.79;45.27;;
74496;Laerm;62979;55.720;37.606;2023-08-17T01:15:56;41.21;37.53;46.09;;
74496;Laerm;62979;55.720;37.606;2023-08-17T01:18:29;44.04;38.02;54.88;;
74496;Laerm;62979;55.720;37.606;2023-08-17T01:20:58;42.18;37.98;50.36;;
74496;Laerm;62979;55.720;37.606;2023-08-17T01:23:27;47.18;38.85;58.63;;
74496;Laerm;62979;55.720;37.606;2023-08-17T01:25:54;42.13;38.29;47.75;;
74496;Laerm;62979;55.720;37.606;2023-08-17T01:28:23;44.38;38.02;55.39;;
74496;Laerm;62979;55.720;37.606;2023-08-17T01:30:58;41.64;38.36;46.98;;
74496;Laerm;62979;55.720;37.606;2023-08-17T01:33:34;41.82;38.12;46.41;;
74496;Laerm;62979;55.720;37.606;2023-08-17T01:36:10;41.79;38.22;47.67;;
74496;Laerm;62979;55.720;37.606;2023-08-17T01:38:40;45.02;38.23;56.08;;
74496;Laerm;62979;55.720;37.606;2023-08-17T01:41:10;41.56;38.15;48.88;;
74496;Laerm;62979;55.720;37.606;2023-08-17T01:43:43;41.61;38.13;46.44;;
74496;Laerm;62979;55.720;37.606;2023-08-17T01:46:13;41.33;37.97;49.38;;
74496;Laerm;62979;55.720;37.606;2023-08-17T01:48:40;41.57;38.25;45.05;;
74496;Laerm;62979;55.720;37.606;2023-08-17T01:51:08;48.51;39.75;59.04;;
74496;Laerm;62979;55.720;37.606;2023-08-17T01:53:34;44.91;38.77;56.84;;
74496;Laerm;62979;55.720;37.606;2023-08-17T01:56:03;49.36;38.12;62.04;;
74496;Laerm;62979;55.720;37.606;2023-08-17T01:58:30;48.62;37.82;70.35;;
74496;Laerm;62979;55.720;37.606;2023-08-17T02:00:57;45.39;38.81;66.99;;
74496;Laerm;62979;55.720;37.606;2023-08-17T02:03:24;42.48;38.09;51.34;;
74496;Laerm;62979;55.720;37.606;2023-08-17T02:05:51;42.27;37.52;53.06;;
74496;Laerm;62979;55.720;37.606;2023-08-17T02:08:18;42.62;38.59;53.08;;
74496;Laerm;62979;55.720;37.606;2023-08-17T02:10:45;41.93;37.94;47.91;;
74496;Laerm;62979;55.720;37.606;2023-08-17T02:13:14;42.58;39.37;54.05;;
74496;Laerm;62979;55.720;37.606;2023-08-17T02:15:41;44.31;38.39;55.83;;
74496;Laerm;62979;55.720;37.606;2023-08-17T02:18:08;45.22;38.59;56.27;;
74496;Laerm;62979;55.720;37.606;2023-08-17T02:20:35;45.78;38.97;57.66;;
74496;Laerm;62979;55.720;37.606;2023-08-17T02:23:02;45.39;39.09;60.13;;
74496;Laerm;62979;55.720;37.606;2023-08-17T02:25:29;43.70;38.85;57.03;;
74496;Laerm;62979;55.720;37.606;2023-08-17T02:28:02;45.43;38.79;59.13;;
74496;Laerm;62979;55.720;37.606;2023-08-17T02:30:31;45.95;38.52;59.93;;
74496;Laerm;62979;55.720;37.606;2023-08-17T02:32:58;50.29;39.32;63.77;;
74496;Laerm;62979;55.720;37.606;2023-08-17T02:35:25;44.15;39.09;59.60;;
74496;Laerm;62979;55.720;37.606;2023-08-17T02:37:52;42.95;38.77;50.64;;
74496;Laerm;62979;55.720;37.606;2023-08-17T02:40:19;43.64;39.06;56.01;;
74496;Laerm;62979;55.720;37.606;2023-08-17T02:42:46;46.29;39.27;58.19;;
74496;Laerm;62979;55.720;37.606;2023-08-17T02:45:13;48.40;39.13;60.25;;
74496;Laerm;62979;55.720;37.606;2023-08-17T02:47:41;48.59;39.35;64.62;;
74496;Laerm;62979;55.720;37.606;2023-08-17T02:50:09;44.45;39.79;55.59;;
74496;Laerm;62979;55.720;37.606;2023-08-17T02:52:36;47.59;39.27;59.43;;
74496;Laerm;62979;55.720;37.606;2023-08-17T02:55:05;47.28;38.66;61.29;;
74496;Laerm;62979;55.720;37.606;2023-08-17T02:57:32;45.78;39.22;55.88;;
74496;Laerm;62979;55.720;37.606;2023-08-17T02:59:58;46.43;39.64;66.69;;
74496;Laerm;62979;55.720;37.606;2023-08-17T03:02:26;45.84;39.65;57.89;;
74496;Laerm;62979;55.720;37.606;2023-08-17T03:04:54;45.16;38.88;56.24;;
74496;Laerm;62979;55.720;37.606;2023-08-17T03:07:21;49.82;39.93;59.66;;
74496;Laerm;62979;55.720;37.606;2023-08-17T03:09:47;45.98;39.19;60.20;;
74496;Laerm;62979;55.720;37.606;2023-08-17T03:12:14;49.89;39.22;63.46;;
74496;Laerm;62979;55.720;37.606;2023-08-17T03:14:41;47.50;39.76;65.78;;
74496;Laerm;62979;55.720;37.606;2023-08-17T03:17:08;49.00;38.25;58.94;;
74496;Laerm;62979;55.720;37.606;2023-08-17T03:19:35;50.56;39.10;61.70;;
74496;Laerm;62979;55.720;37.606;2023-08-17T03:22:03;54.00;40.14;65.64;;
74496;Laerm;62979;55.720;37.606;2023-08-17T03:24:30;52.14;39.02;66.50;;
74496;Laerm;62979;55.720;37.606;2023-08-17T03:26:57;57.58;42.01;66.92;;
74496;Laerm;62979;55.720;37.606;2023-08-17T03:29:25;45.68;39.46;56.25;;
74496;Laerm;62979;55.720;37.606;2023-08-17T03:31:52;52.34;41.29;74.29;;
74496;Laerm;62979;55.720;37.606;2023-08-17T03:34:19;43.45;38.60;58.07;;
74496;Laerm;62979;55.720;37.606;2023-08-17T03:36:46;47.64;39.36;64.42;;
74496;Laerm;62979;55.720;37.606;2023-08-17T03:39:14;48.03;39.25;58.58;;
74496;Laerm;62979;55.720;37.606;2023-08-17T03:41:41;49.71;38.84;71.66;;
74496;Laerm;62979;55.720;37.606;2023-08-17T03:44:08;49.07;40.79;61.19;;
74496;Laerm;62979;55.720;37.606;2023-08-17T03:46:35;50.67;40.31;62.52;;
74496;Laerm;62979;55.720;37.606;2023-08-17T03:49:02;50.67;37.86;61.04;;
74496;Laerm;62979;55.720;37.606;2023-08-17T03:51:29;52.68;38.80;63.70;;
74496;Laerm;62979;55.720;37.606;2023-08-17T03:53:56;47.53;38.66;59.06;;
74496;Laerm;62979;55.720;37.606;2023-08-17T03:56:24;46.64;39.71;56.04;;
74496;Laerm;62979;55.720;37.606;2023-08-17T03:58:53;52.20;41.61;62.49;;
74496;Laerm;62979;55.720;37.606;2023-08-17T04:01:20;56.00;44.92;74.68;;
74496;Laerm;62979;55.720;37.606;2023-08-17T04:03:46;56.73;46.83;70.99;;
74496;Laerm;62979;55.720;37.606;2023-08-17T04:06:13;59.66;46.25;77.44;;
74496;Laerm;62979;55.720;37.606;2023-08-17T04:08:40;52.54;41.43;70.23;;
74496;Laerm;62979;55.720;37.606;2023-08-17T04:11:07;56.89;42.92;71.33;;
74496;Laerm;62979;55.720;37.606;2023-08-17T04:13:35;53.09;45.48;64.40;;
74496;Laerm;62979;55.720;37.606;2023-08-17T04:16:02;51.79;45.26;62.27;;
74496;Laerm;62979;55.720;37.606;2023-08-17T04:18:29;50.39;43.48;60.36;;
74496;Laerm;62979;55.720;37.606;2023-08-17T04:20:56;53.12;43.42;62.67;;
74496;Laerm;62979;55.720;37.606;2023-08-17T04:23:23;54.84;47.90;65.32;;
74496;Laerm;62979;55.720;37.606;2023-08-17T04:25:50;53.24;46.51;64.78;;
74496;Laerm;62979;55.720;37.606;2023-08-17T04:28:17;53.90;46.92;62.31;;
74496;Laerm;62979;55.720;37.606;2023-08-17T04:30:46;55.22;46.75;65.93;;
74496;Laerm;62979;55.720;37.606;2023-08-17T04:33:13;54.84;45.62;64.78;;
74496;Laerm;62979;55.720;37.606;2023-08-17T04:35:40;51.73;42.97;67.15;;
74496;Laerm;62979;55.720;37.606;2023-08-17T04:38:07;52.16;44.19;65.13;;
74496;Laerm;62979;55.720;37.606;2023-08-17T04:40:34;51.78;43.61;62.19;;
74496;Laerm;62979;55.720;37.606;2023-08-17T04:43:01;53.24;46.41;61.85;;
74496;Laerm;62979;55.720;37.606;2023-08-17T04:45:28;52.68;42.04;65.74;;
74496;Laerm;62979;55.720;37.606;2023-08-17T04:47:56;54.77;42.72;67.23;;
74496;Laerm;62979;55.720;37.606;2023-08-17T04:50:23;51.95;46.02;61.48;;
74496;Laerm;62979;55.720;37.606;2023-08-17T04:52:50;54.05;48.08;63.53;;
74496;Laerm;62979;55.720;37.606;2023-08-17T04:55:16;56.10;47.59;65.52;;
74496;Laerm;62979;55.720;37.606;2023-08-17T04:57:43;54.73;46.51;69.91;;
74496;Laerm;62979;55.720;37.606;2023-08-17T05:00:12;52.73;46.94;61.87;;
74496;Laerm;62979;55.720;37.606;2023-08-17T05:02:39;53.93;43.46;61.62;;
74496;Laerm;62979;55.720;37.606;2023-08-17T05:05:10;54.03;44.88;65.92;;
74496;Laerm;62979;55.720;37.606;2023-08-17T05:07:37;54.55;44.92;64.35;;
74496;Laerm;62979;55.720;37.606;2023-08-17T05:10:05;54.34;47.08;62.96;;
74496;Laerm;62979;55.720;37.606;2023-08-17T05:12:32;53.21;45.06;63.85;;
74496;Laerm;62979;55.720;37.606;2023-08-17T05:14:59;53.60;45.41;66.82;;
74496;Laerm;62979;55.720;37.606;2023-08-17T05:17:26;56.45;46.22;65.81;;
74496;Laerm;62979;55.720;37.606;2023-08-17T05:19:53;56.78;46.31;66.33;;
74496;Laerm;62979;55.720;37.606;2023-08-17T05:22:22;54.77;47.78;62.74;;
74496;Laerm;62979;55.720;37.606;2023-08-17T05:24:49;56.50;48.33;70.15;;
74496;Laerm;62979;55.720;37.606;2023-08-17T05:27:16;56.22;49.16;63.24;;
74496;Laerm;62979;55.720;37.606;2023-08-17T05:29:43;56.62;47.25;66.46;;
74496;Laerm;62979;55.720;37.606;2023-08-17T05:32:10;56.07;51.02;68.61;;
74496;Laerm;62979;55.720;37.606;2023-08-17T05:34:37;54.23;46.65;61.86;;
74496;Laerm;62979;55.720;37.606;2023-08-17T05:37:03;54.92;47.34;68.60;;
74496;Laerm;62979;55.720;37.606;2023-08-17T05:39:32;57.26;48.31;76.72;;
74496;Laerm;62979;55.720;37.606;2023-08-17T05:41:59;55.94;48.63;63.55;;
74496;Laerm;62979;55.720;37.606;2023-08-17T05:44:25;54.63;46.33;63.23;;
74496;Laerm;62979;55.720;37.606;2023-08-17T05:46:52;54.62;48.29;63.89;;
74496;Laerm;62979;55.720;37.606;2023-08-17T05:49:19;54.35;47.26;65.72;;
74496;Laerm;62979;55.720;37.606;2023-08-17T05:51:46;57.09;50.25;68.85;;
74496;Laerm;62979;55.720;37.606;2023-08-17T05:54:13;57.64;50.15;67.24;;
74496;Laerm;62979;55.720;37.606;2023-08-17T05:56:41;56.87;47.47;73.14;;
74496;Laerm;62979;55.720;37.606;2023-08-17T05:59:12;55.17;45.97;67.26;;
74496;Laerm;62979;55.720;37.606;2023-08-17T06:01:39;53.48;47.26;62.36;;
74496;Laerm;62979;55.720;37.606;2023-08-17T06:04:06;54.10;47.26;62.59;;
74496;Laerm;62979;55.720;37.606;2023-08-17T06:06:33;54.34;47.53;61.78;;
74496;Laerm;62979;55.720;37.606;2023-08-17T06:09:00;55.72;46.63;62.27;;
74496;Laerm;62979;55.720;37.606;2023-08-17T06:11:27;55.08;47.31;65.35;;
74496;Laerm;62979;55.720;37.606;2023-08-17T06:13:55;56.09;48.58;69.36;;
74496;Laerm;62979;55.720;37.606;2023-08-17T06:16:22;57.22;48.26;66.99;;
74496;Laerm;62979;55.720;37.606;2023-08-17T06:18:49;54.24;46.98;64.12;;
74496;Laerm;62979;55.720;37.606;2023-08-17T06:21:16;54.78;45.85;63.15;;
74496;Laerm;62979;55.720;37.606;2023-08-17T06:23:43;54.97;48.61;67.26;;
74496;Laerm;62979;55.720;37.606;2023-08-17T06:26:10;54.46;47.68;69.32;;
74496;Laerm;62979;55.720;37.606;2023-08-17T06:28:37;55.21;48.74;65.07;;
74496;Laerm;62979;55.720;37.606;2023-08-17T06:31:05;54.61;48.43;61.66;;
74496;Laerm;62979;55.720;37.606;2023-08-17T06:33:32;56.37;45.55;68.07;;
74496;Laerm;62979;55.720;37.606;2023-08-17T06:35:59;59.94;48.37;73.55;;
74496;Laerm;62979;55.720;37.606;2023-08-17T06:38:26;55.33;48.51;66.82;;
74496;Laerm;62979;55.720;37.606;2023-08-17T06:40:53;55.15;47.74;66.55;;
74496;Laerm;62979;55.720;37.606;2023-08-17T06:43:19;55.46;49.54;62.72;;
74496;Laerm;62979;55.720;37.606;2023-08-17T06:45:46;54.61;46.18;68.32;;
74496;Laerm;62979;55.720;37.606;2023-08-17T06:48:15;56.41;46.95;70.07;;
74496;Laerm;62979;55.720;37.606;2023-08-17T06:50:42;55.67;48.26;68.26;;
74496;Laerm;62979;55.720;37.606;2023-08-17T06:53:08;54.85;48.10;63.69;;
74496;Laerm;62979;55.720;37.606;2023-08-17T06:55:35;56.61;48.79;68.61;;
74496;Laerm;62979;55.720;37.606;2023-08-17T06:58:02;56.65;47.78;68.67;;
74496;Laerm;62979;55.720;37.606;2023-08-17T07:12:13;55.30;45.99;62.97;;
74496;Laerm;62979;55.720;37.606;2023-08-17T07:14:39;55.39;46.26;62.23;;
74496;Laerm;62979;55.720;37.606;2023-08-17T07:17:06;54.66;47.14;63.56;;
74496;Laerm;62979;55.720;37.606;2023-08-17T07:19:33;55.12;47.13;62.16;;
74496;Laerm;62979;55.720;37.606;2023-08-17T07:22:00;63.48;49.71;82.22;;
74496;Laerm;62979;55.720;37.606;2023-08-17T07:24:27;55.25;48.33;63.03;;
74496;Laerm;62979;55.720;37.606;2023-08-17T07:26:54;52.52;45.11;61.09;;
74496;Laerm;62979;55.720;37.606;2023-08-17T07:29:23;55.00;46.84;63.40;;
74496;Laerm;62979;55.720;37.606;2023-08-17T07:31:50;55.21;47.68;74.63;;
74496;Laerm;62979;55.720;37.606;2023-08-17T07:34:17;54.09;47.31;62.62;;
74496;Laerm;62979;55.720;37.606;2023-08-17T07:36:44;54.00;48.40;63.38;;
74496;Laerm;62979;55.720;37.606;2023-08-17T07:39:10;55.55;45.09;65.89;;
74496;Laerm;62979;55.720;37.606;2023-08-17T07:41:38;55.38;46.88;65.35;;
74496;Laerm;62979;55.720;37.606;2023-08-17T07:44:05;54.91;48.10;62.82;;
74496;Laerm;62979;55.720;37.606;2023-08-17T07:46:33;56.84;49.05;64.60;;
74496;Laerm;62979;55.720;37.606;2023-08-17T07:49:00;55.47;47.04;66.09;;
74496;Laerm;62979;55.720;37.606;2023-08-17T07:51:27;57.86;51.31;67.11;;
74496;Laerm;62979;55.720;37.606;2023-08-17T07:53:55;54.98;47.50;64.31;;
74496;Laerm;62979;55.720;37.606;2023-08-17T07:56:22;54.57;48.30;60.70;;
74496;Laerm;62979;55.720;37.606;2023-08-17T07:58:49;54.28;47.93;62.33;;
74496;Laerm;62979;55.720;37.606;2023-08-17T08:01:16;54.34;48.22;63.05;;
74496;Laerm;62979;55.720;37.606;2023-08-17T08:03:45;62.28;49.21;75.40;;
74496;Laerm;62979;55.720;37.606;2023-08-17T08:06:11;57.56;46.83;71.41;;
74496;Laerm;62979;55.720;37.606;2023-08-17T08:08:39;55.14;49.30;63.85;;
74496;Laerm;62979;55.720;37.606;2023-08-17T08:11:06;57.96;48.42;72.01;;
74496;Laerm;62979;55.720;37.606;2023-08-17T08:13:33;58.35;47.98;75.64;;
74496;Laerm;62979;55.720;37.606;2023-08-17T08:16:00;55.90;47.52;64.51;;
74496;Laerm;62979;55.720;37.606;2023-08-17T08:18:27;53.30;47.54;61.60;;
74496;Laerm;62979;55.720;37.606;2023-08-17T08:20:55;58.20;47.54;72.87;;
74496;Laerm;62979;55.720;37.606;2023-08-17T08:23:22;59.09;50.40;78.18;;
74496;Laerm;62979;55.720;37.606;2023-08-17T08:25:49;62.64;53.19;71.22;;
74496;Laerm;62979;55.720;37.606;2023-08-17T08:28:16;60.51;50.27;70.59;;
74496;Laerm;62979;55.720;37.606;2023-08-17T08:30:42;62.86;53.10;73.72;;
74496;Laerm;62979;55.720;37.606;2023-08-17T08:33:09;66.65;56.00;77.36;;
74496;Laerm;62979;55.720;37.606;2023-08-17T08:35:36;62.17;52.75;75.61;;
74496;Laerm;62979;55.720;37.606;2023-08-17T08:38:06;60.61;48.32;74.92;;
74496;Laerm;62979;55.720;37.606;2023-08-17T08:40:37;57.46;49.87;67.96;;
74496;Laerm;62979;55.720;37.606;2023-08-17T08:43:07;53.41;47.87;60.38;;
74496;Laerm;62979;55.720;37.606;2023-08-17T08:45:37;56.22;49.89;75.20;;
74496;Laerm;62979;55.720;37.606;2023-08-17T08:48:08;54.90;49.81;64.68;;
74496;Laerm;62979;55.720;37.606;2023-08-17T08:50:36;56.59;50.24;66.78;;
74496;Laerm;62979;55.720;37.606;2023-08-17T08:53:13;55.94;48.68;64.70;;
74496;Laerm;62979;55.720;37.606;2023-08-17T08:55:47;59.44;48.25;76.79;;
74496;Laerm;62979;55.720;37.606;2023-08-17T08:58:16;56.65;50.26;62.41;;
74496;Laerm;62979;55.720;37.606;2023-08-17T09:00:46;59.75;50.20;77.75;;
74496;Laerm;62979;55.720;37.606;2023-08-17T09:03:15;58.65;49.59;66.58;;
74496;Laerm;62979;55.720;37.606;2023-08-17T09:05:47;57.66;47.97;67.75;;
74496;Laerm;62979;55.720;37.606;2023-08-17T09:08:24;55.15;46.19;62.08;;
74496;Laerm;62979;55.720;37.606;2023-08-17T09:10:52;55.75;48.10;66.14;;
74496;Laerm;62979;55.720;37.606;2023-08-17T09:13:19;56.69;46.96;64.88;;
74496;Laerm;62979;55.720;37.606;2023-08-17T09:15:46;58.00;49.89;70.78;;
74496;Laerm;62979;55.720;37.606;2023-08-17T09:18:13;55.48;48.46;63.92;;
74496;Laerm;62979;55.720;37.606;2023-08-17T09:20:42;54.52;47.57;61.97;;
74496;Laerm;62979;55.720;37.606;2023-08-17T09:23:11;54.33;46.24;66.35;;
74496;Laerm;62979;55.720;37.606;2023-08-17T09:25:42;56.46;49.81;64.00;;
74496;Laerm;62979;55.720;37.606;2023-08-17T09:28:11;55.08;47.84;62.72;;
74496;Laerm;62979;55.720;37.606;2023-08-17T09:30:52;56.48;50.15;66.10;;
74496;Laerm;62979;55.720;37.606;2023-08-17T09:33:21;59.24;50.12;75.02;;
74496;Laerm;62979;55.720;37.606;2023-08-17T09:35:49;55.58;49.81;62.95;;
74496;Laerm;62979;55.720;37.606;2023-08-17T09:38:17;61.45;48.68;80.68;;
74496;Laerm;62979;55.720;37.606;2023-08-17T09:40:45;53.43;46.21;62.03;;
74496;Laerm;62979;55.720;37.606;2023-08-17T09:43:13;53.75;46.87;69.30;;
74496;Laerm;62979;55.720;37.606;2023-08-17T09:45:43;55.20;48.01;62.16;;
74496;Laerm;62979;55.720;37.606;2023-08-17T09:48:15;54.57;47.80;70.81;;
74496;Laerm;62979;55.720;37.606;2023-08-17T09:50:43;53.81;45.15;74.80;;
74496;Laerm;62979;55.720;37.606;2023-08-17T09:53:13;54.85;47.58;63.70;;
74496;Laerm;62979;55.720;37.606;2023-08-17T09:55:41;52.83;47.47;63.96;;
74496;Laerm;62979;55.720;37.606;2023-08-17T09:58:10;54.11;47.58;64.98;;
74496;Laerm;62979;55.720;37.606;2023-08-17T10:00:44;54.35;48.01;62.60;;
74496;Laerm;62979;55.720;37.606;2023-08-17T10:03:14;55.69;47.03;77.65;;
74496;Laerm;62979;55.720;37.606;2023-08-17T10:05:46;54.47;47.80;68.07;;
74496;Laerm;62979;55.720;37.606;2023-08-17T10:08:20;59.84;48.68;80.37;;
74496;Laerm;62979;55.720;37.606;2023-08-17T10:10:47;59.71;48.36;77.32;;
74496;Laerm;62979;55.720;37.606;2023-08-17T10:13:28;53.23;46.79;61.31;;
74496;Laerm;62979;55.720;37.606;2023-08-17T10:16:04;54.36;47.09;65.34;;
74496;Laerm;62979;55.720;37.606;2023-08-17T10:18:42;55.88;47.45;64.03;;
74496;Laerm;62979;55.720;37.606;2023-08-17T10:21:20;54.71;46.70;67.17;;
74496;Laerm;62979;55.720;37.606;2023-08-17T10:23:48;56.29;48.73;63.98;;
74496;Laerm;62979;55.720;37.606;2023-08-17T10:26:16;55.56;48.43;65.31;;
74496;Laerm;62979;55.720;37.606;2023-08-17T10:28:46;53.73;47.83;62.85;;
74496;Laerm;62979;55.720;37.606;2023-08-17T10:31:14;53.93;48.28;66.32;;
74496;Laerm;62979;55.720;37.606;2023-08-17T10:33:42;57.69;51.00;73.59;;
74496;Laerm;62979;55.720;37.606;2023-08-17T10:36:12;56.36;50.18;66.20;;
74496;Laerm;62979;55.720;37.606;2023-08-17T10:38:40;53.88;47.59;63.84;;
74496;Laerm;62979;55.720;37.606;2023-08-17T10:41:10;53.25;45.93;61.20;;
74496;Laerm;62979;55.720;37.606;2023-08-17T10:43:58;55.35;47.58;65.21;;
74496;Laerm;62979;55.720;37.606;2023-08-17T10:46:36;54.72;47.63;61.02;;
74496;Laerm;62979;55.720;37.606;2023-08-17T10:49:06;52.35;46.11;61.41;;
74496;Laerm;62979;55.720;37.606;2023-08-17T10:51:34;53.11;46.78;62.65;;
74496;Laerm;62979;55.720;37.606;2023-08-17T10:54:03;56.81;46.76;68.23;;
74496;Laerm;62979;55.720;37.606;2023-08-17T10:56:30;56.39;47.28;64.73;;
74496;Laerm;62979;55.720;37.606;2023-08-17T10:59:03;56.17;47.29;78.46;;
74496;Laerm;62979;55.720;37.606;2023-08-17T11:01:51;53.43;46.90;70.62;;
74496;Laerm;62979;55.720;37.606;2023-08-17T11:04:18;53.37;48.10;64.64;;
74496;Laerm;62979;55.720;37.606;2023-08-17T11:07:01;56.27;48.69;66.55;;
74496;Laerm;62979;55.720;37.606;2023-08-17T11:09:29;54.62;47.77;65.74;;
74496;Laerm;62979;55.720;37.606;2023-08-17T11:12:00;55.12;47.36;70.24;;
74496;Laerm;62979;55.720;37.606;2023-08-17T11:14:34;53.86;46.72;64.91;;
74496;Laerm;62979;55.720;37.606;2023-08-17T11:17:03;55.49;49.76;68.69;;
74496;Laerm;62979;55.720;37.606;2023-08-17T11:19:30;56.96;50.45;68.40;;
74496;Laerm;62979;55.720;37.606;2023-08-17T11:21:57;55.63;48.04;65.52;;
74496;Laerm;62979;55.720;37.606;2023-08-17T11:24:24;56.39;49.41;69.37;;
74496;Laerm;62979;55.720;37.606;2023-08-17T11:26:51;53.63;48.20;61.48;;
74496;Laerm;62979;55.720;37.606;2023-08-17T11:29:18;59.87;49.92;74.74;;
74496;Laerm;62979;55.720;37.606;2023-08-17T11:31:50;55.20;48.34;69.61;;
74496;Laerm;62979;55.720;37.606;2023-08-17T11:34:16;55.41;47.45;77.65;;
74496;Laerm;62979;55.720;37.606;2023-08-17T11:36:43;54.03;47.72;62.33;;
74496;Laerm;62979;55.720;37.606;2023-08-17T11:39:10;57.48;50.45;68.71;;
74496;Laerm;62979;55.720;37.606;2023-08-17T11:41:39;55.52;48.47;67.32;;
74496;Laerm;62979;55.720;37.606;2023-08-17T11:44:06;57.41;48.88;70.16;;
74496;Laerm;62979;55.720;37.606;2023-08-17T11:46:33;55.32;47.88;65.01;;
74496;Laerm;62979;55.720;37.606;2023-08-17T11:49:02;56.00;49.96;63.79;;
74496;Laerm;62979;55.720;37.606;2023-08-17T11:51:29;55.95;50.08;66.64;;
74496;Laerm;62979;55.720;37.606;2023-08-17T11:53:59;57.35;50.31;67.86;;
74496;Laerm;62979;55.720;37.606;2023-08-17T11:56:29;58.52;49.56;70.66;;
74496;Laerm;62979;55.720;37.606;2023-08-17T11:58:56;56.34;49.36;64.85;;
74496;Laerm;62979;55.720;37.606;2023-08-17T12:01:23;55.53;50.85;62.77;;
74496;Laerm;62979;55.720;37.606;2023-08-17T12:03:50;57.17;53.08;64.60;;
74496;Laerm;62979;55.720;37.606;2023-08-17T12:06:18;55.94;51.04;60.92;;
74496;Laerm;62979;55.720;37.606;2023-08-17T12:08:47;56.15;49.92;63.67;;
74496;Laerm;62979;55.720;37.606;2023-08-17T12:11:15;55.18;49.87;72.39;;
74496;Laerm;62979;55.720;37.606;2023-08-17T12:13:43;52.74;48.11;61.27;;
74496;Laerm;62979;55.720;37.606;2023-08-17T12:16:15;54.30;48.57;63.71;;
74496;Laerm;62979;55.720;37.606;2023-08-17T12:18:45;56.65;49.69;66.81;;
74496;Laerm;62979;55.720;37.606;2023-08-17T12:21:12;55.39;50.09;61.43;;
74496;Laerm;62979;55.720;37.606;2023-08-17T12:23:41;53.06;46.47;61.75;;
74496;Laerm;62979;55.720;37.606;2023-08-17T12:26:08;54.01;47.02;71.37;;
74496;Laerm;62979;55.720;37.606;2023-08-17T12:28:35;56.80;51.48;62.57;;
74496;Laerm;62979;55.720;37.606;2023-08-17T12:31:03;56.42;50.75;63.46;;
74496;Laerm;62979;55.720;37.606;2023-08-17T12:33:30;55.03;49.25;72.35;;
74496;Laerm;62979;55.720;37.606;2023-08-17T12:35:57;54.48;46.74;61.48;;
74496;Laerm;62979;55.720;37.606;2023-08-17T12:38:24;57.95;50.30;69.50;;
74496;Laerm;62979;55.720;37.606;2023-08-17T12:40:53;54.96;49.55;60.96;;
74496;Laerm;62979;55.720;37.606;2023-08-17T12:43:20;55.01;49.51;66.53;;
74496;Laerm;62979;55.720;37.606;2023-08-17T12:45:47;53.60;48.59;62.99;;
74496;Laerm;62979;55.720;37.606;2023-08-17T12:48:15;55.28;48.89;61.52;;
74496;Laerm;62979;55.720;37.606;2023-08-17T12:50:41;53.96;48.33;64.46;;
74496;Laerm;62979;55.720;37.606;2023-08-17T12:53:08;53.32;47.54;60.55;;
74496;Laerm;62979;55.720;37.606;2023-08-17T12:55:35;56.22;45.92;82.07;;
74496;Laerm;62979;55.720;37.606;2023-08-17T12:58:04;52.61;45.83;63.12;;
74496;Laerm;62979;55.720;37.606;2023-08-17T13:00:32;51.65;45.21;59.94;;
74496;Laerm;62979;55.720;37.606;2023-08-17T13:02:59;52.65;46.62;60.81;;
74496;Laerm;62979;55.720;37.606;2023-08-17T13:05:26;56.11;47.73;70.22;;
74496;Laerm;62979;55.720;37.606;2023-08-17T13:07:53;53.52;46.24;62.21;;
74496;Laerm;62979;55.720;37.606;2023-08-17T13:10:21;53.76;45.71;63.15;;
74496;Laerm;62979;55.720;37.606;2023-08-17T13:12:47;62.11;48.73;77.92;;
74496;Laerm;62979;55.720;37.606;2023-08-17T13:15:16;63.01;45.08;82.32;;
74496;Laerm;62979;55.720;37.606;2023-08-17T13:17:43;53.05;45.78;61.17;;
74496;Laerm;62979;55.720;37.606;2023-08-17T13:20:10;55.05;46.17;66.33;;
74496;Laerm;62979;55.720;37.606;2023-08-17T13:22:37;53.39;44.05;61.97;;
74496;Laerm;62979;55.720;37.606;2023-08-17T13:25:05;54.33;48.50;62.31;;
74496;Laerm;62979;55.720;37.606;2023-08-17T13:27:32;53.65;46.72;64.00;;
74496;Laerm;62979;55.720;37.606;2023-08-17T13:29:59;53.29;46.63;59.20;;
74496;Laerm;62979;55.720;37.606;2023-08-17T13:32:28;53.88;44.89;65.11;;
74496;Laerm;62979;55.720;37.606;2023-08-17T13:34:55;52.43;44.21;62.29;;
74496;Laerm;62979;55.720;37.606;2023-08-17T13:37:22;54.26;46.27;63.88;;
74496;Laerm;62979;55.720;37.606;2023-08-17T13:39:49;54.77;47.41;64.62;;
74496;Laerm;62979;55.720;37.606;2023-08-17T13:42:16;55.39;48.93;71.09;;
74496;Laerm;62979;55.720;37.606;2023-08-17T13:44:43;55.99;47.07;66.66;;
74496;Laerm;62979;55.720;37.606;2023-08-17T13:47:11;58.94;46.93;78.23;;
74496;Laerm;62979;55.720;37.606;2023-08-17T13:49:39;54.06;47.99;63.66;;